Time;durP1;ratioP1;P1;durP2;ratioP2;P2;SDS_P1;SDS_P2;PMS_P1;PMS_P2;Temp;Humidity;BMP_temperature;BMP_pressure;BME280_temperature;BME280_humidity;BME280_pressure;Samples;Min_cycle;Max_cycle;Signal;HPM_P1;HPM_P2
2023/07/17 00:00:36;;;;;;;14.75;13.23;;;;;;;26.35;56.46;95265.81;5106818;28;20506;-84
2023/07/17 00:03:02;;;;;;;14.70;13.15;;;;;;;26.35;56.47;95262.22;5105767;28;20129;-85
2023/07/17 00:05:28;;;;;;;15.57;12.65;;;;;;;26.33;56.34;95264.81;5105974;28;20022;-85
2023/07/17 00:07:53;;;;;;;13.13;11.82;;;;;;;26.28;56.41;95268.47;5107271;28;20023;-86
2023/07/17 00:10:18;;;;;;;15.32;13.35;;;;;;;26.21;56.70;95269.84;5104998;28;20027;-86
2023/07/17 00:12:44;;;;;;;16.23;13.68;;;;;;;26.19;56.87;95264.72;5107775;28;20043;-85
2023/07/17 00:15:09;;;;;;;16.30;12.93;;;;;;;26.18;56.72;95266.03;5105667;28;20429;-85
2023/07/17 00:17:35;;;;;;;14.38;12.70;;;;;;;26.15;56.80;95264.28;5106701;28;20047;-85
2023/07/17 00:20:05;;;;;;;16.27;13.63;;;;;;;26.12;56.93;95268.16;5105811;28;20034;-85
2023/07/17 00:22:31;;;;;;;14.73;13.23;;;;;;;26.09;56.80;95269.25;5107648;28;20016;-85
2023/07/17 00:24:56;;;;;;;14.38;12.80;;;;;;;26.08;56.67;95272.56;5105487;28;20047;-85
2023/07/17 00:27:21;;;;;;;14.35;12.45;;;;;;;26.04;56.62;95267.25;5106580;28;20049;-84
2023/07/17 00:29:47;;;;;;;14.75;13.23;;;;;;;25.99;56.74;95273.72;5107908;28;20016;-84
2023/07/17 00:32:13;;;;;;;17.13;13.10;;;;;;;25.98;56.68;95275.00;5104559;28;20467;-85
2023/07/17 00:34:39;;;;;;;16.70;13.10;;;;;;;25.90;56.73;95272.03;5106225;28;20083;-85
2023/07/17 00:37:05;;;;;;;14.73;12.15;;;;;;;25.90;56.58;95274.06;5105839;28;20501;-85
2023/07/17 00:39:31;;;;;;;14.27;12.95;;;;;;;25.85;56.68;95272.09;5105888;28;20024;-85
2023/07/17 00:41:57;;;;;;;15.82;12.40;;;;;;;25.85;56.36;95281.28;5106278;28;20024;-86
2023/07/17 00:44:23;;;;;;;13.07;11.88;;;;;;;25.79;55.89;95271.38;5105231;28;20027;-85
2023/07/17 00:46:49;;;;;;;12.60;10.70;;;;;;;25.77;55.92;95276.81;5105632;28;20028;-85
2023/07/17 00:49:15;;;;;;;12.77;11.43;;;;;;;25.71;55.52;95274.03;5104197;28;20031;-84
2023/07/17 00:51:41;;;;;;;12.70;11.00;;;;;;;25.72;55.32;95277.59;5105993;28;20023;-85
2023/07/17 00:54:07;;;;;;;12.10;10.70;;;;;;;25.68;55.29;95281.47;5104424;28;20784;-84
2023/07/17 00:56:33;;;;;;;13.80;10.38;;;;;;;25.66;54.17;95278.41;5107573;28;20497;-85
2023/07/17 00:58:58;;;;;;;10.32;8.50;;;;;;;25.62;52.49;95275.13;5104267;28;20028;-85
2023/07/17 01:01:25;;;;;;;14.75;9.50;;;;;;;25.54;52.04;95276.25;5105361;28;20038;-85
2023/07/17 01:03:54;;;;;;;10.07;8.43;;;;;;;25.44;51.24;95275.84;5106806;28;20027;-86
2023/07/17 01:06:19;;;;;;;9.85;8.50;;;;;;;25.27;51.33;95275.25;5104654;28;20104;-85
2023/07/17 01:08:45;;;;;;;9.05;7.68;;;;;;;25.25;50.80;95277.84;5107524;28;20106;-84
2023/07/17 01:11:10;;;;;;;10.23;7.90;;;;;;;25.15;50.42;95283.03;5104956;28;20024;-84
2023/07/17 01:13:50;;;;;;;12.30;7.97;;;;;;;25.09;50.26;95276.69;5105871;28;20098;-84
2023/07/17 01:16:16;;;;;;;10.70;7.85;;;;;;;25.08;50.58;95275.19;5106453;28;20039;-85
2023/07/17 01:18:42;;;;;;;9.32;7.68;;;;;;;25.07;50.26;95274.41;5109254;28;20046;-85
2023/07/17 01:21:11;;;;;;;9.05;8.15;;;;;;;24.99;50.10;95276.22;5109179;28;20023;-85
2023/07/17 01:23:37;;;;;;;10.70;7.78;;;;;;;24.90;50.31;95274.53;5109920;28;20024;-86
2023/07/17 01:26:16;;;;;;;9.00;8.05;;;;;;;24.88;51.19;95285.53;5110804;28;20093;-86
2023/07/17 01:28:42;;;;;;;10.50;7.30;;;;;;;24.89;51.25;95275.81;5109393;28;20032;-86
2023/07/17 01:31:08;;;;;;;8.52;7.22;;;;;;;24.91;50.90;95278.09;5110809;28;20015;-85
2023/07/17 01:33:34;;;;;;;9.07;6.85;;;;;;;24.93;49.73;95281.16;5108559;28;20019;-84
2023/07/17 01:36:00;;;;;;;7.82;7.03;;;;;;;24.92;49.70;95276.06;5108848;28;20027;-85
2023/07/17 01:38:26;;;;;;;11.88;6.88;;;;;;;24.92;49.95;95274.00;5110372;28;20028;-85
2023/07/17 01:40:52;;;;;;;8.50;7.07;;;;;;;24.92;50.13;95270.44;5109385;28;20500;-84
2023/07/17 01:43:17;;;;;;;8.93;6.75;;;;;;;24.95;49.79;95272.97;5110517;28;20545;-84
2023/07/17 01:45:43;;;;;;;9.23;7.20;;;;;;;24.95;49.64;95278.59;5107869;28;20141;-84
2023/07/17 01:48:09;;;;;;;8.32;6.53;;;;;;;24.95;49.87;95278.59;5109150;28;20930;-84
2023/07/17 01:50:34;;;;;;;7.28;6.40;;;;;;;24.91;49.67;95280.91;5109222;27;20028;-84
2023/07/17 01:53:00;;;;;;;11.65;6.93;;;;;;;24.93;49.71;95280.38;5110173;28;20042;-84
2023/07/17 01:55:25;;;;;;;7.93;6.68;;;;;;;24.93;49.37;95288.81;5109586;28;20425;-84
2023/07/17 01:57:50;;;;;;;8.02;6.53;;;;;;;24.90;49.37;95291.41;5109550;28;20024;-85
2023/07/17 02:00:16;;;;;;;10.75;6.32;;;;;;;24.92;48.52;95293.69;5110868;28;20405;-84
2023/07/17 02:02:41;;;;;;;7.22;6.35;;;;;;;24.86;48.87;95290.91;5109226;28;20051;-84
2023/07/17 02:05:07;;;;;;;7.13;5.55;;;;;;;24.84;48.62;95287.13;5110694;28;20019;-85
2023/07/17 02:07:33;;;;;;;7.75;5.90;;;;;;;24.81;48.86;95293.78;5107148;28;20031;-85
2023/07/17 02:09:58;;;;;;;9.02;5.95;;;;;;;24.79;49.05;95301.97;5109952;28;20490;-85
2023/07/17 02:12:23;;;;;;;9.10;6.80;;;;;;;24.79;48.91;95304.78;5109288;27;20084;-85
2023/07/17 02:14:49;;;;;;;12.88;7.28;;;;;;;24.77;49.19;95299.66;5091396;28;20096;-83
2023/07/17 02:17:14;;;;;;;7.93;6.43;;;;;;;24.76;48.75;95295.34;5109479;28;20126;-85
2023/07/17 02:19:40;;;;;;;7.28;6.00;;;;;;;24.74;49.18;95300.72;5108701;28;20032;-85
2023/07/17 02:22:06;;;;;;;8.98;7.05;;;;;;;24.69;49.31;95295.13;5109922;28;20087;-85
2023/07/17 02:24:31;;;;;;;8.70;6.60;;;;;;;24.68;49.55;95297.19;5108176;28;20036;-85
2023/07/17 02:26:58;;;;;;;11.73;7.95;;;;;;;24.66;49.73;95301.78;5109845;27;20024;-87
2023/07/17 02:29:24;;;;;;;11.95;6.40;;;;;;;24.62;49.74;95296.47;5108459;28;20024;-85
2023/07/17 02:31:50;;;;;;;9.05;6.50;;;;;;;24.58;49.84;95296.75;5108373;28;20137;-85
2023/07/17 02:34:15;;;;;;;9.10;7.10;;;;;;;24.57;50.69;95298.03;5107541;28;20504;-85
2023/07/17 02:36:42;;;;;;;8.23;7.00;;;;;;;24.58;50.85;95301.59;5107275;28;20378;-85
2023/07/17 02:39:08;;;;;;;8.10;7.30;;;;;;;24.56;50.91;95307.00;5109400;28;20027;-87
2023/07/17 02:41:33;;;;;;;9.88;8.80;;;;;;;24.56;52.42;95312.59;5107990;28;20028;-85
2023/07/17 02:43:59;;;;;;;10.90;9.45;;;;;;;24.58;53.30;95316.41;5108245;28;20470;-86
2023/07/17 02:46:24;;;;;;;15.75;10.43;;;;;;;24.60;54.74;95315.88;5107951;28;20024;-85
2023/07/17 02:48:49;;;;;;;12.32;11.13;;;;;;;24.52;55.22;95312.13;5109369;28;20031;-86
2023/07/17 02:51:15;;;;;;;11.77;10.57;;;;;;;24.46;55.25;95305.75;5107588;28;20054;-85
2023/07/17 02:53:40;;;;;;;12.23;10.57;;;;;;;24.43;55.96;95310.41;5109604;28;20031;-86
2023/07/17 02:56:07;;;;;;;12.98;11.48;;;;;;;24.43;56.63;95313.19;5109239;28;20410;-86
2023/07/17 02:58:33;;;;;;;15.57;12.43;;;;;;;24.41;56.89;95312.19;5108289;28;20077;-86
2023/07/17 03:00:58;;;;;;;13.57;12.23;;;;;;;24.40;57.38;95314.22;5109737;28;20023;-86
2023/07/17 03:03:24;;;;;;;14.93;12.95;;;;;;;24.39;57.57;95320.38;5107970;28;20494;-86
2023/07/17 03:05:49;;;;;;;14.05;12.65;;;;;;;24.36;57.92;95320.09;5109772;28;20102;-86
2023/07/17 03:08:15;;;;;;;14.23;12.73;;;;;;;24.33;58.01;95317.56;5107530;28;20446;-85
2023/07/17 03:10:40;;;;;;;15.70;13.43;;;;;;;24.26;58.34;95323.75;5108822;28;20024;-85
2023/07/17 03:13:06;;;;;;;14.35;12.73;;;;;;;24.24;58.14;95321.44;5108412;28;20020;-86
2023/07/17 03:15:31;;;;;;;16.83;13.30;;;;;;;24.26;58.27;95329.34;5107673;28;20590;-85
2023/07/17 03:17:57;;;;;;;14.90;13.30;;;;;;;24.21;58.26;95330.13;5108828;28;20023;-85
2023/07/17 03:20:22;;;;;;;17.85;14.02;;;;;;;24.22;58.31;95332.44;5107462;28;20016;-85
2023/07/17 03:22:48;;;;;;;17.48;14.20;;;;;;;24.19;58.75;95333.44;5109092;28;20046;-83
2023/07/17 03:25:13;;;;;;;15.60;14.07;;;;;;;24.15;58.48;95327.34;5106652;28;20411;-79
2023/07/17 03:27:39;;;;;;;18.17;13.18;;;;;;;24.18;58.35;95340.34;5108650;28;20024;-78
2023/07/17 03:30:05;;;;;;;14.88;13.45;;;;;;;24.23;58.25;95338.81;5105852;28;20047;-81
2023/07/17 03:32:33;;;;;;;14.30;12.80;;;;;;;24.29;57.86;95334.69;5089647;28;20128;-78
2023/07/17 03:34:58;;;;;;;13.95;12.32;;;;;;;24.31;57.59;95336.97;5106545;28;20028;-78
2023/07/17 03:37:24;;;;;;;12.30;11.10;;;;;;;24.23;56.36;95345.19;5106826;28;20034;-78
2023/07/17 03:39:49;;;;;;;12.32;10.07;;;;;;;24.18;55.15;95345.97;5107832;28;20093;-78
2023/07/17 03:42:14;;;;;;;12.50;10.18;;;;;;;24.17;55.50;95344.44;5106293;28;20123;-79
2023/07/17 03:44:40;;;;;;;13.02;11.15;;;;;;;24.16;55.22;95344.97;5107055;28;20399;-80
2023/07/17 03:47:06;;;;;;;13.85;11.18;;;;;;;24.15;55.70;95349.06;5105407;27;20099;-79
2023/07/17 03:49:32;;;;;;;14.60;11.52;;;;;;;24.14;55.88;95348.28;5106222;28;20028;-79
2023/07/17 03:52:00;;;;;;;12.70;11.30;;;;;;;24.13;55.48;95352.38;5106180;28;20429;-80
2023/07/17 03:54:25;;;;;;;15.57;10.95;;;;;;;24.09;55.44;95352.66;5107213;28;20031;-79
2023/07/17 03:56:51;;;;;;;12.95;10.93;;;;;;;24.11;55.65;95357.75;5108164;28;20058;-79
2023/07/17 03:59:21;;;;;;;15.15;12.63;;;;;;;24.14;56.40;95353.88;5106081;28;20118;-79
2023/07/17 04:01:47;;;;;;;13.95;12.55;;;;;;;24.10;56.98;95356.22;5108206;28;20410;-80
2023/07/17 04:04:12;;;;;;;15.02;12.02;;;;;;;24.14;57.01;95353.88;5106401;28;20474;-79
2023/07/17 04:06:38;;;;;;;15.27;12.63;;;;;;;24.10;57.16;95362.59;5107858;28;20049;-79
2023/07/17 04:09:04;;;;;;;15.15;13.55;;;;;;;24.10;56.94;95351.38;5106670;28;20019;-79
2023/07/17 04:11:29;;;;;;;14.00;12.50;;;;;;;24.13;57.24;95352.38;5105602;28;20024;-79
2023/07/17 04:13:54;;;;;;;16.23;12.25;;;;;;;24.15;56.86;95352.63;5107818;28;20492;-79
2023/07/17 04:16:20;;;;;;;15.25;13.13;;;;;;;24.18;56.41;95362.06;5105876;27;20031;-79
2023/07/17 04:18:46;;;;;;;18.33;13.63;;;;;;;24.16;56.67;95359.00;5106368;28;20031;-79
2023/07/17 04:21:12;;;;;;;19.23;13.50;;;;;;;24.15;57.11;95366.69;5104372;28;20027;-79
2023/07/17 04:23:37;;;;;;;14.85;13.35;;;;;;;24.19;57.23;95372.78;5107767;28;20016;-79
2023/07/17 04:26:03;;;;;;;19.92;14.13;;;;;;;24.17;57.22;95368.97;5106032;28;20426;-79
2023/07/17 04:28:28;;;;;;;18.20;15.10;;;;;;;24.21;57.57;95363.84;5105878;28;20028;-79
2023/07/17 04:30:53;;;;;;;16.65;13.93;;;;;;;24.24;57.33;95371.22;5107229;28;20054;-79
2023/07/17 04:33:19;;;;;;;13.90;12.40;;;;;;;24.27;57.09;95370.97;5106008;28;20024;-78
2023/07/17 04:35:44;;;;;;;15.93;12.45;;;;;;;24.27;56.38;95373.00;5106163;28;20062;-78
2023/07/17 04:38:10;;;;;;;15.15;12.38;;;;;;;24.30;55.69;95369.91;5105648;28;20069;-78
2023/07/17 04:40:35;;;;;;;15.18;10.65;;;;;;;24.28;54.31;95377.34;5107529;28;20031;-79
2023/07/17 04:43:01;;;;;;;15.25;11.10;;;;;;;24.30;53.52;95377.59;5104226;28;20020;-80
2023/07/17 04:45:26;;;;;;;13.60;11.15;;;;;;;24.30;54.07;95374.78;5106052;28;20035;-78
2023/07/17 04:47:52;;;;;;;13.98;11.50;;;;;;;24.31;53.89;95384.72;5106379;28;20019;-80
2023/07/17 04:50:18;;;;;;;13.32;11.27;;;;;;;24.30;53.86;95375.53;5104785;28;20094;-78
2023/07/17 04:52:43;;;;;;;16.02;11.73;;;;;;;24.31;53.64;95379.88;5106984;28;20047;-79
2023/07/17 04:55:09;;;;;;;15.65;12.45;;;;;;;24.34;53.36;95381.69;5105674;28;20024;-79
2023/07/17 04:57:34;;;;;;;13.63;10.57;;;;;;;24.32;53.21;95377.84;5105941;28;20410;-79
2023/07/17 05:00:00;;;;;;;13.93;11.73;;;;;;;24.31;53.42;95384.72;5105117;28;20059;-79
2023/07/17 05:02:25;;;;;;;12.10;10.70;;;;;;;24.31;53.67;95384.72;5107373;28;20024;-79
2023/07/17 05:04:51;;;;;;;13.27;11.43;;;;;;;24.29;53.86;95390.09;5105792;28;20023;-79
2023/07/17 05:07:16;;;;;;;15.02;11.45;;;;;;;24.28;54.04;95389.34;5106881;28;20110;-79
2023/07/17 05:09:42;;;;;;;16.15;11.63;;;;;;;24.29;53.94;95393.66;5106844;28;20418;-79
2023/07/17 05:12:07;;;;;;;13.30;11.38;;;;;;;24.29;54.05;95393.66;5104178;28;20050;-78
2023/07/17 05:14:32;;;;;;;16.15;11.60;;;;;;;24.32;54.07;95387.03;5105723;28;20034;-78
2023/07/17 05:16:58;;;;;;;12.95;11.00;;;;;;;24.35;53.99;95385.25;5105034;28;20046;-78
2023/07/17 05:19:23;;;;;;;16.35;11.57;;;;;;;24.37;53.86;95396.72;5106074;28;20028;-78
2023/07/17 05:21:49;;;;;;;13.48;10.45;;;;;;;24.39;53.18;95388.56;5105383;28;20026;-79
2023/07/17 05:24:14;;;;;;;13.45;9.95;;;;;;;24.42;53.01;95395.94;5088460;28;20039;-79
2023/07/17 05:26:40;;;;;;;13.18;10.35;;;;;;;24.43;52.77;95397.50;5105888;28;20047;-79
2023/07/17 05:29:05;;;;;;;14.25;9.00;;;;;;;24.47;51.75;95397.97;5105046;28;20044;-78
2023/07/17 05:31:31;;;;;;;14.45;8.95;;;;;;;24.52;50.60;95394.38;5106689;28;20019;-80
2023/07/17 05:33:56;;;;;;;11.82;8.48;;;;;;;24.53;50.11;95395.88;5104196;28;20236;-77
2023/07/17 05:36:22;;;;;;;11.88;8.75;;;;;;;24.58;49.70;95397.16;5106758;28;20103;-78
2023/07/17 05:38:47;;;;;;;14.82;8.88;;;;;;;24.59;50.03;95404.28;5105143;28;20034;-78
2023/07/17 05:41:13;;;;;;;11.93;7.95;;;;;;;24.57;49.68;95399.19;5106755;28;20023;-78
2023/07/17 05:43:39;;;;;;;11.40;8.18;;;;;;;24.59;49.66;95405.06;5103943;28;20027;-79
2023/07/17 05:46:04;;;;;;;14.65;9.27;;;;;;;24.62;49.32;95411.69;5105273;28;20028;-84
2023/07/17 05:48:29;;;;;;;10.00;7.40;;;;;;;24.70;48.77;95414.72;5105490;28;20027;-84
2023/07/17 05:50:55;;;;;;;9.98;7.15;;;;;;;24.67;48.83;95404.53;5104736;28;20558;-85
2023/07/17 05:53:20;;;;;;;12.70;7.70;;;;;;;24.73;48.45;95408.06;5077384;28;20550;-84
2023/07/17 05:55:46;;;;;;;10.13;7.65;;;;;;;24.79;48.70;95408.81;5095067;28;20024;-84
2023/07/17 05:58:12;;;;;;;11.50;7.97;;;;;;;24.84;48.33;95413.63;5096141;28;20506;-79
2023/07/17 06:00:37;;;;;;;7.78;6.95;;;;;;;24.85;47.98;95409.53;5097717;28;20114;-78
2023/07/17 06:03:03;;;;;;;11.25;7.00;;;;;;;24.92;47.94;95411.78;5124485;27;20015;-80
2023/07/17 06:05:28;;;;;;;11.13;7.05;;;;;;;24.99;47.00;95411.22;5108270;28;20103;-79
2023/07/17 06:07:53;;;;;;;9.45;6.85;;;;;;;25.01;46.93;95408.66;5109982;27;20020;-82
2023/07/17 06:10:19;;;;;;;11.50;6.85;;;;;;;25.06;46.96;95405.09;5109940;28;20366;-81
2023/07/17 06:12:44;;;;;;;10.93;6.68;;;;;;;25.07;47.01;95412.22;5108642;28;20041;-81
2023/07/17 06:15:13;;;;;;;9.45;6.85;;;;;;;25.06;47.44;95402.28;5125557;27;20118;-81
2023/07/17 06:17:38;;;;;;;9.20;6.93;;;;;;;25.19;46.96;95403.72;5123831;27;20034;-83
2023/07/17 06:20:10;;;;;;;11.65;6.65;;;;;;;25.25;46.87;95399.56;5110085;28;20012;-83
2023/07/17 06:22:35;;;;;;;10.10;6.95;;;;;;;25.37;46.56;95403.81;5124394;27;20114;-83
2023/07/17 06:25:02;;;;;;;12.15;7.03;;;;;;;25.37;46.53;95406.63;5109968;28;20111;-83
2023/07/17 06:27:27;;;;;;;9.85;6.55;;;;;;;25.43;46.28;95401.72;5108703;28;20030;-84
2023/07/17 06:29:53;;;;;;;9.82;6.80;;;;;;;25.50;46.26;95400.38;5108677;28;20418;-79
2023/07/17 06:32:18;;;;;;;10.20;6.70;;;;;;;25.53;46.38;95393.72;5108411;28;20721;-79
2023/07/17 06:34:43;;;;;;;14.45;6.97;;;;;;;25.60;46.21;95398.75;5107746;28;20091;-79
2023/07/17 06:37:09;;;;;;;14.50;7.45;;;;;;;25.67;46.06;95398.19;5109373;28;20031;-80
2023/07/17 06:39:34;;;;;;;17.23;7.82;;;;;;;25.72;46.02;95393.03;5107579;28;20015;-78
2023/07/17 06:42:00;;;;;;;10.48;6.70;;;;;;;25.81;45.88;95395.53;5109271;28;20022;-78
2023/07/17 06:44:25;;;;;;;9.77;7.03;;;;;;;25.85;45.91;95393.94;5106854;28;20126;-77
2023/07/17 06:46:50;;;;;;;11.95;7.50;;;;;;;25.88;45.81;95394.94;5124501;27;20055;-80
2023/07/17 06:49:16;;;;;;;11.18;7.82;;;;;;;25.97;45.73;95388.94;5124612;27;20031;-80
2023/07/17 06:51:41;;;;;;;10.20;7.88;;;;;;;26.06;45.23;95390.66;5123098;27;20031;-80
2023/07/17 06:54:07;;;;;;;14.00;7.90;;;;;;;26.10;45.13;95391.88;5124751;27;20046;-80
2023/07/17 06:56:32;;;;;;;10.63;7.13;;;;;;;26.13;45.33;95388.00;5107405;28;20024;-81
2023/07/17 06:58:57;;;;;;;14.43;7.40;;;;;;;26.19;45.60;95387.94;5125079;27;20111;-78
2023/07/17 07:01:23;;;;;;;10.85;6.80;;;;;;;26.27;45.64;95391.69;5107793;28;20024;-82
2023/07/17 07:03:48;;;;;;;11.10;7.43;;;;;;;26.37;45.52;95394.91;5107722;28;20064;-83
2023/07/17 07:06:14;;;;;;;14.73;7.82;;;;;;;26.42;45.20;95392.03;5108234;28;20054;-84
2023/07/17 07:08:42;;;;;;;9.15;7.88;;;;;;;26.55;44.57;95393.41;5123454;27;20023;-83
2023/07/17 07:11:08;;;;;;;11.35;7.57;;;;;;;26.60;44.80;95389.75;5124369;27;20027;-80
2023/07/17 07:13:33;;;;;;;11.05;7.43;;;;;;;26.70;44.52;95388.84;5105080;27;20038;-81
2023/07/17 07:15:59;;;;;;;13.88;9.88;;;;;;;26.85;43.50;95388.41;5107022;28;20048;-80
2023/07/17 07:18:27;;;;;;;8.93;7.60;;;;;;;26.90;43.65;95390.38;5107504;28;20114;-80
2023/07/17 07:20:53;;;;;;;12.75;7.93;;;;;;;26.95;43.54;95383.91;5109420;28;20023;-87
2023/07/17 07:23:19;;;;;;;13.43;8.27;;;;;;;26.97;44.00;95386.19;5124269;27;20535;-85
2023/07/17 07:25:44;;;;;;;13.48;8.65;;;;;;;26.99;43.87;95383.59;5123810;27;20106;-81
2023/07/17 07:28:11;;;;;;;9.48;8.48;;;;;;;27.08;43.84;95371.94;5108232;28;20019;-84
2023/07/17 07:30:37;;;;;;;11.32;8.63;;;;;;;27.14;43.73;95375.44;5105739;28;20031;-85
2023/07/17 07:33:02;;;;;;;14.27;8.57;;;;;;;27.21;43.97;95374.81;5124177;27;20278;-87
2023/07/17 07:35:27;;;;;;;10.35;7.93;;;;;;;27.27;43.53;95369.81;5122498;27;20043;-82
2023/07/17 07:37:53;;;;;;;9.65;7.65;;;;;;;27.37;43.63;95373.03;5108371;28;20509;-84
2023/07/17 07:40:19;;;;;;;12.73;7.95;;;;;;;27.45;42.87;95364.66;5122599;27;20020;-84
2023/07/17 07:42:44;;;;;;;13.25;7.80;;;;;;;27.52;43.33;95367.59;5108292;28;20406;-85
2023/07/17 07:45:11;;;;;;;11.20;7.55;;;;;;;27.63;43.36;95358.19;5107132;28;20394;-87
2023/07/17 07:47:37;;;;;;;12.68;7.53;;;;;;;27.72;42.87;95359.88;5107467;28;20022;-85
2023/07/17 07:50:03;;;;;;;16.90;8.40;;;;;;;27.86;42.43;95364.22;5107705;28;20020;-85
2023/07/17 07:52:28;;;;;;;13.65;7.70;;;;;;;27.92;42.46;95362.03;5116124;28;20028;-86
2023/07/17 07:54:54;;;;;;;13.25;7.75;;;;;;;27.98;42.31;95357.03;5112568;28;20168;-83
2023/07/17 07:57:20;;;;;;;10.52;6.88;;;;;;;28.14;41.47;95365.75;5107461;28;20263;-82
2023/07/17 07:59:45;;;;;;;11.48;7.70;;;;;;;28.19;41.59;95362.81;5108024;28;20028;-89
2023/07/17 08:02:11;;;;;;;12.73;7.97;;;;;;;28.23;42.00;95357.59;5107561;28;20031;-87
2023/07/17 08:04:37;;;;;;;13.60;8.52;;;;;;;28.36;41.52;95358.91;5106614;28;20496;-80
2023/07/17 08:07:03;;;;;;;16.52;7.82;;;;;;;28.37;41.54;95354.78;5107367;28;20474;-90
2023/07/17 08:09:29;;;;;;;13.70;8.60;;;;;;;28.53;41.75;95357.25;5105478;28;20348;-87
2023/07/17 08:11:54;;;;;;;19.15;8.02;;;;;;;28.68;41.05;95355.94;5108303;28;20023;-86
2023/07/17 08:14:21;;;;;;;10.20;7.28;;;;;;;28.69;41.66;95352.56;5121229;27;20492;-78
2023/07/17 08:16:47;;;;;;;10.88;8.07;;;;;;;28.80;41.10;95354.38;5126330;27;20429;-86
2023/07/17 08:19:12;;;;;;;14.93;8.20;;;;;;;28.86;41.27;95351.41;5105406;28;20031;-87
2023/07/17 08:21:38;;;;;;;10.45;7.35;;;;;;;28.93;41.00;95345.88;5106551;28;20023;-76
2023/07/17 08:24:04;;;;;;;10.10;7.13;;;;;;;29.01;41.38;95349.53;5123259;27;20031;-88
2023/07/17 08:26:29;;;;;;;12.68;7.65;;;;;;;29.13;41.22;95341.53;5106721;28;20031;-89
2023/07/17 08:28:54;;;;;;;12.55;7.78;;;;;;;29.24;41.32;95343.31;5108208;28;20460;-85
2023/07/17 08:31:20;;;;;;;12.60;8.27;;;;;;;29.33;40.76;95346.44;5105563;28;20107;-86
2023/07/17 08:33:46;;;;;;;11.20;7.75;;;;;;;29.39;40.80;95340.66;5106161;28;20027;-86
2023/07/17 08:36:11;;;;;;;16.58;12.00;;;;;;;29.54;40.80;95334.38;5103619;28;20493;-86
2023/07/17 08:38:37;;;;;;;12.13;9.05;;;;;;;29.65;40.78;95341.81;5122968;27;20099;-86
2023/07/17 08:41:03;;;;;;;17.98;9.52;;;;;;;29.72;40.60;95344.72;5106515;28;20383;-85
2023/07/17 08:43:29;;;;;;;12.93;8.88;;;;;;;29.87;40.39;95338.38;5106376;28;20077;-85
2023/07/17 08:45:55;;;;;;;17.90;13.95;;;;;;;29.97;40.00;95332.97;5123203;27;20047;-86
2023/07/17 08:48:21;;;;;;;12.63;9.45;;;;;;;30.15;39.61;95332.75;5121601;27;20066;-85
2023/07/17 08:50:47;;;;;;;10.75;8.75;;;;;;;30.20;39.59;95333.91;5106421;28;20060;-86
2023/07/17 08:53:13;;;;;;;16.45;8.98;;;;;;;30.30;39.44;95340.56;5121102;27;20049;-86
2023/07/17 08:55:39;;;;;;;11.40;8.32;;;;;;;30.41;39.47;95336.66;5123258;28;20032;-86
2023/07/17 08:58:04;;;;;;;11.27;8.18;;;;;;;30.52;38.95;95338.41;5105741;28;20548;-86
2023/07/17 09:00:31;;;;;;;12.18;9.07;;;;;;;30.64;38.72;95328.25;5106735;28;20023;-86
2023/07/17 09:02:57;;;;;;;10.05;8.30;;;;;;;30.77;38.29;95330.22;5106963;28;20088;-86
2023/07/17 09:05:22;;;;;;;9.52;8.60;;;;;;;30.90;38.59;95339.31;5121442;28;20028;-86
2023/07/17 09:07:47;;;;;;;12.48;8.80;;;;;;;31.07;37.66;95324.59;5108593;28;20137;-87
2023/07/17 09:10:21;;;;;;;15.73;9.55;;;;;;;31.22;37.10;95326.72;5106329;28;20111;-86
2023/07/17 09:12:57;;;;;;;14.32;9.57;;;;;;;31.33;37.06;95323.53;5106175;28;20332;-84
2023/07/17 09:15:25;;;;;;;12.25;9.15;;;;;;;31.43;36.95;95324.50;5104005;28;20048;-84
2023/07/17 09:17:51;;;;;;;13.10;8.38;;;;;;;31.53;36.97;95321.06;5122070;28;20016;-85
2023/07/17 09:20:18;;;;;;;11.15;8.38;;;;;;;31.67;36.54;95323.16;5106419;28;20053;-85
2023/07/17 09:22:43;;;;;;;12.70;8.07;;;;;;;31.82;36.99;95319.56;5105501;28;20028;-85
2023/07/17 09:25:10;;;;;;;10.80;8.50;;;;;;;31.93;36.94;95318.41;5106877;28;20038;-85
2023/07/17 09:27:49;;;;;;;10.05;8.00;;;;;;;32.08;35.93;95312.69;5105251;28;20028;-86
2023/07/17 09:30:19;;;;;;;12.57;7.60;;;;;;;32.15;36.26;95308.31;5088368;28;20494;-86
2023/07/17 09:32:46;;;;;;;11.60;7.90;;;;;;;32.32;35.91;95304.88;5104955;28;20080;-86
2023/07/17 09:35:12;;;;;;;12.48;7.30;;;;;;;32.41;35.04;95299.38;5121995;28;20028;-85
2023/07/17 09:37:40;;;;;;;9.90;8.02;;;;;;;32.61;34.87;95302.50;5108131;28;20034;-86
2023/07/17 09:40:12;;;;;;;8.70;6.97;;;;;;;32.69;34.16;95294.66;5108874;28;20020;-88
2023/07/17 09:42:39;;;;;;;10.52;7.28;;;;;;;32.81;34.25;95290.06;5111349;28;20107;-83
2023/07/17 09:45:05;;;;;;;11.52;8.35;;;;;;;33.07;32.77;95296.56;5124514;27;20034;-84
2023/07/17 09:47:34;;;;;;;12.23;7.55;;;;;;;33.18;33.17;95301.81;5125163;27;20061;-86
2023/07/17 09:50:01;;;;;;;10.30;8.27;;;;;;;33.24;33.14;95302.34;5125169;27;20028;-86
2023/07/17 09:52:30;;;;;;;10.68;8.13;;;;;;;33.29;32.70;95302.13;5109304;28;20553;-86
2023/07/17 09:54:57;;;;;;;8.50;7.40;;;;;;;33.38;32.81;95300.72;5108987;28;20027;-86
2023/07/17 09:57:27;;;;;;;11.45;7.15;;;;;;;33.60;29.64;95292.59;5108379;27;20042;-87
2023/07/17 09:59:58;;;;;;;8.40;7.05;;;;;;;33.67;30.43;95303.19;5126377;27;20104;-86
2023/07/17 10:02:29;;;;;;;8.10;6.10;;;;;;;33.77;30.97;95295.47;5107813;28;20051;-86
2023/07/17 10:04:58;;;;;;;8.38;6.60;;;;;;;33.87;31.11;95289.88;5092283;28;20030;-86
2023/07/17 10:07:24;;;;;;;10.05;6.80;;;;;;;33.98;30.84;95295.13;5107952;28;20031;-87
2023/07/17 10:09:49;;;;;;;8.77;6.70;;;;;;;34.15;30.38;95285.81;5124801;27;20489;-87
2023/07/17 10:12:16;;;;;;;7.60;6.18;;;;;;;34.28;30.53;95285.47;5125498;27;20055;-86
2023/07/17 10:14:42;;;;;;;9.52;5.75;;;;;;;34.51;28.72;95276.66;5108151;28;20452;-86
2023/07/17 10:17:28;;;;;;;7.72;6.32;;;;;;;34.61;28.89;95280.34;5108438;28;20047;-87
2023/07/17 10:19:57;;;;;;;8.07;6.78;;;;;;;34.72;29.12;95276.97;5124267;27;20032;-86
2023/07/17 10:22:27;;;;;;;8.10;6.63;;;;;;;34.93;29.08;95275.75;5110025;28;20669;-86
2023/07/17 10:24:53;;;;;;;9.00;5.90;;;;;;;35.06;29.25;95281.84;5126515;27;20036;-86
2023/07/17 10:27:38;;;;;;;6.30;5.70;;;;;;;35.25;28.28;95277.56;5126862;27;20080;-86
2023/07/17 10:30:29;;;;;;;10.55;6.70;;;;;;;35.39;28.13;95279.44;5110698;28;20110;-87
2023/07/17 10:33:13;;;;;;;7.18;6.03;;;;;;;35.55;28.20;95274.22;5109137;28;20028;-86
2023/07/17 10:36:00;;;;;;;8.98;6.35;;;;;;;35.68;27.98;95272.31;5107625;28;20114;-87
2023/07/17 10:38:50;;;;;;;8.65;6.72;;;;;;;35.88;26.63;95268.13;5108220;28;20035;-87
2023/07/17 10:41:16;;;;;;;10.30;7.05;;;;;;;36.01;26.69;95264.84;5105527;28;20185;-86
2023/07/17 10:44:04;;;;;;;6.88;6.22;;;;;;;36.07;26.82;95265.34;5109708;28;20098;-86
2023/07/17 10:46:32;;;;;;;8.75;6.57;;;;;;;36.17;26.96;95254.63;5106370;28;20055;-88
2023/07/17 10:49:05;;;;;;;9.63;6.20;;;;;;;36.25;25.80;95260.22;5107975;28;20019;-86
2023/07/17 10:51:30;;;;;;;6.90;5.32;;;;;;;36.29;24.85;95254.03;5109301;28;20031;-87
2023/07/17 10:53:56;;;;;;;6.90;5.80;;;;;;;36.34;25.10;95247.25;5108348;28;20031;-89
2023/07/17 10:56:22;;;;;;;8.40;5.85;;;;;;;36.38;26.58;95259.00;5109816;28;20032;-87
2023/07/17 10:58:50;;;;;;;7.43;5.57;;;;;;;36.47;26.05;95257.50;5107466;28;20109;-88
2023/07/17 11:01:15;;;;;;;7.70;6.00;;;;;;;36.57;25.85;95250.41;5107774;28;20027;-87
2023/07/17 11:03:44;;;;;;;6.30;5.70;;;;;;;36.64;25.46;95245.88;5108014;28;20019;-89
2023/07/17 11:06:09;;;;;;;7.40;5.70;;;;;;;36.71;25.92;95252.81;5107845;28;20020;-87
2023/07/17 11:08:35;;;;;;;6.22;5.63;;;;;;;36.80;24.84;95243.44;5124517;27;20016;-88
2023/07/17 11:11:00;;;;;;;5.63;5.05;;;;;;;36.79;24.04;95241.94;5108205;28;20474;-88
2023/07/17 11:13:32;;;;;;;7.03;5.38;;;;;;;36.90;24.87;95232.75;5124684;27;20032;-88
2023/07/17 11:16:10;;;;;;;6.28;5.13;;;;;;;37.00;24.71;95229.84;5107133;28;20185;-87
2023/07/17 11:18:55;;;;;;;5.97;4.97;;;;;;;37.06;24.84;95238.88;5091112;28;20057;-88
2023/07/17 11:21:25;;;;;;;6.10;4.50;;;;;;;37.20;21.76;95234.88;5108840;28;20031;-87